Time;durP1;ratioP1;P1;durP2;ratioP2;P2;SDS_P1;SDS_P2;PMS_P1;PMS_P2;Temp;Humidity;BMP_temperature;BMP_pressure;BME280_temperature;BME280_humidity;BME280_pressure;Samples;Min_cycle;Max_cycle;Signal;HPM_P1;HPM_P2
2021/07/15 00:00:09;;;;;;;12.20;9.90;;;;;;;25.80;61.61;99340.08;1710121;83;21061;-41
2021/07/15 00:02:36;;;;;;;12.03;10.68;;;;;;;25.78;61.56;99342.53;1710059;83;21129;-41
2021/07/15 00:05:09;;;;;;;14.05;11.38;;;;;;;25.76;61.59;99339.44;1709908;83;21539;-41
2021/07/15 00:07:36;;;;;;;13.88;11.25;;;;;;;25.75;61.00;99346.25;1703300;83;21614;-41
2021/07/15 00:10:19;;;;;;;13.98;11.45;;;;;;;25.71;61.04;99342.21;1683789;85;21070;-41
2021/07/15 00:12:48;;;;;;;12.15;10.72;;;;;;;25.69;61.52;99341.14;1684203;85;21093;-41
2021/07/15 00:15:19;;;;;;;13.95;10.93;;;;;;;25.67;62.35;99346.37;1684011;85;20941;-41
2021/07/15 00:17:46;;;;;;;16.75;10.93;;;;;;;25.64;61.63;99343.92;1684137;85;20977;-40
2021/07/15 00:20:16;;;;;;;12.23;10.93;;;;;;;25.61;61.48;99335.11;1684078;85;20962;-41
2021/07/15 00:22:42;;;;;;;12.37;10.98;;;;;;;25.59;61.41;99342.38;1684088;85;21069;-41
2021/07/15 00:25:13;;;;;;;16.77;11.43;;;;;;;25.58;61.31;99349.15;1684092;85;20977;-41
2021/07/15 00:27:40;;;;;;;12.98;11.57;;;;;;;25.58;61.33;99342.98;1684180;85;21156;-41
2021/07/15 00:30:11;;;;;;;15.18;11.65;;;;;;;25.55;61.14;99347.30;1720025;83;21001;-41
2021/07/15 00:32:38;;;;;;;13.93;12.30;;;;;;;25.52;61.19;99339.23;1736230;82;20961;-41
2021/07/15 00:35:08;;;;;;;15.13;12.70;;;;;;;25.48;61.05;99335.84;1717831;83;20969;-41
2021/07/15 00:37:35;;;;;;;16.77;11.30;;;;;;;25.46;61.00;99341.85;1707332;83;21054;-41
2021/07/15 00:40:05;;;;;;;13.55;12.18;;;;;;;25.44;60.99;99338.78;1703536;84;21555;-41
2021/07/15 00:42:34;;;;;;;15.60;11.95;;;;;;;25.43;61.01;99340.00;1689451;84;21118;-41
2021/07/15 00:45:01;;;;;;;17.23;12.30;;;;;;;25.43;61.24;99346.17;1678715;85;21513;-41
2021/07/15 00:47:27;;;;;;;14.13;11.70;;;;;;;25.42;61.34;99341.23;1692557;84;21087;-41
2021/07/15 00:49:55;;;;;;;16.02;12.35;;;;;;;25.42;61.20;99332.91;1707050;83;21033;-41
2021/07/15 00:52:23;;;;;;;15.32;12.28;;;;;;;25.42;61.16;99334.30;1707097;84;21096;-41
2021/07/15 00:54:51;;;;;;;15.48;11.28;;;;;;;25.40;60.86;99340.94;1679154;84;20958;-41
2021/07/15 00:57:19;;;;;;;15.30;11.50;;;;;;;25.37;61.34;99346.00;1695436;83;21603;-41
2021/07/15 00:59:48;;;;;;;16.37;11.78;;;;;;;25.35;61.36;99340.16;1678748;85;21551;-40
2021/07/15 01:02:18;;;;;;;12.35;11.05;;;;;;;25.38;61.34;99337.84;1678553;85;21073;-41
2021/07/15 01:04:45;;;;;;;13.65;12.03;;;;;;;25.40;61.20;99336.77;1678671;85;21135;-41
2021/07/15 01:07:11;;;;;;;16.85;12.05;;;;;;;25.42;61.11;99335.69;1680248;82;21661;-41
2021/07/15 01:09:39;;;;;;;16.50;12.07;;;;;;;25.44;61.26;99339.39;1702797;83;21547;-41
2021/07/15 01:12:39;;;;;;;13.15;11.80;;;;;;;25.26;61.03;99316.55;1699343;84;21014;-41
2021/07/15 01:15:13;;;;;;;15.38;12.03;;;;;;;25.43;61.11;99342.78;1699090;84;21117;-41
2021/07/15 01:18:18;;;;;;;14.73;11.68;;;;;;;25.40;61.29;99346.48;1699632;83;20978;-41
2021/07/15 01:21:19;;;;;;;11.55;10.35;;;;;;;25.38;61.55;99350.33;1699457;84;21128;-40
2021/07/15 01:24:30;;;;;;;13.60;11.95;;;;;;;25.35;61.59;99352.65;1699509;84;21058;-40
2021/07/15 01:27:29;;;;;;;;;;;;;;;25.36;61.45;99355.58;1702002;84;21492;-40
2021/07/15 01:30:14;;;;;;;14.10;11.73;;;;;;;25.34;61.44;99348.94;1700049;84;20181;-40
2021/07/15 01:33:04;;;;;;;14.83;12.53;;;;;;;25.22;61.51;99350.63;1691817;83;20938;-41
2021/07/15 01:35:49;;;;;;;13.50;12.00;;;;;;;25.22;61.53;99350.63;1676712;84;21616;-41
2021/07/15 01:38:22;;;;;;;15.68;12.60;;;;;;;25.20;61.44;99350.30;1671376;85;21059;-41
2021/07/15 01:41:06;;;;;;;13.98;12.47;;;;;;;25.15;61.47;99343.96;1671209;85;21035;-41
2021/07/15 01:43:57;;;;;;;18.85;11.85;;;;;;;25.09;61.63;99337.47;1671279;85;21609;-40
2021/07/15 01:46:24;;;;;;;14.43;11.83;;;;;;;25.05;62.14;99346.55;1672051;84;21186;-41
2021/07/15 01:48:51;;;;;;;13.88;11.53;;;;;;;25.03;62.37;99346.22;1699609;84;21021;-40
2021/07/15 01:51:19;;;;;;;14.18;11.18;;;;;;;25.05;62.59;99345.94;1699399;84;21030;-41
2021/07/15 01:53:49;;;;;;;17.80;12.20;;;;;;;25.08;62.92;99345.63;1699610;84;20942;-41
2021/07/15 01:56:16;;;;;;;16.35;11.73;;;;;;;25.09;63.19;99347.17;1679792;84;21065;-41
2021/07/15 01:58:44;;;;;;;14.63;11.57;;;;;;;25.10;63.49;99347.34;1699493;84;21141;-41
2021/07/15 02:01:10;;;;;;;14.65;12.15;;;;;;;25.10;63.70;99342.56;1679561;84;20982;-41
2021/07/15 02:03:42;;;;;;;15.40;11.20;;;;;;;25.10;63.59;99357.05;1699565;84;20907;-41
2021/07/15 02:06:09;;;;;;;12.53;11.22;;;;;;;25.08;63.15;99352.56;1699399;83;21043;-41
2021/07/15 02:08:36;;;;;;;14.85;11.63;;;;;;;25.11;62.79;99357.21;1699232;84;21081;-41
2021/07/15 02:11:05;;;;;;;13.68;11.57;;;;;;;25.11;62.65;99339.17;1720090;83;20973;-41
2021/07/15 02:13:34;;;;;;;16.85;12.25;;;;;;;25.12;62.50;99346.89;1720439;83;20977;-41
2021/07/15 02:16:02;;;;;;;13.90;12.18;;;;;;;25.10;62.41;99345.34;1720404;83;21522;-41
2021/07/15 02:18:30;;;;;;;14.03;12.60;;;;;;;25.08;62.26;99348.40;1694009;83;21503;-41
2021/07/15 02:20:57;;;;;;;17.92;13.08;;;;;;;25.06;62.22;99355.03;1720453;83;21057;-41
2021/07/15 02:23:24;;;;;;;16.15;13.03;;;;;;;25.02;62.02;99350.25;1720374;83;21537;-41
2021/07/15 02:25:52;;;;;;;15.80;11.97;;;;;;;24.95;62.17;99354.68;1693627;83;21032;-41
2021/07/15 02:28:21;;;;;;;14.40;11.95;;;;;;;24.94;62.18;99354.52;1720452;83;20984;-41
2021/07/15 02:30:52;;;;;;;14.73;12.17;;;;;;;24.95;62.25;99354.68;1720513;83;21014;-40
2021/07/15 02:33:26;;;;;;;13.20;11.73;;;;;;;24.97;62.20;99358.56;1720286;83;21049;-40
2021/07/15 02:35:55;;;;;;;15.50;11.95;;;;;;;24.98;62.32;99362.11;1711310;83;21538;-40
2021/07/15 02:38:23;;;;;;;15.83;11.90;;;;;;;24.98;62.50;99360.72;1691584;84;21001;-41
2021/07/15 02:40:52;;;;;;;;;;;;;;;24.99;62.75;99367.17;1693925;84;21272;-41
2021/07/15 02:43:20;;;;;;;15.28;12.00;;;;;;;25.00;63.24;99362.41;1691418;84;20138;-41
2021/07/15 02:45:49;;;;;;;17.52;12.53;;;;;;;24.91;63.04;99365.15;1691447;84;20965;-41
2021/07/15 02:48:17;;;;;;;13.28;11.53;;;;;;;24.94;62.99;99370.55;1714854;83;21172;-41
2021/07/15 02:50:44;;;;;;;16.15;11.85;;;;;;;24.99;63.14;99369.17;1720539;83;21542;-41
2021/07/15 02:53:13;;;;;;;26.35;14.98;;;;;;;25.03;63.12;99371.19;1720321;83;21053;-41
2021/07/15 02:55:46;;;;;;;18.02;12.75;;;;;;;25.05;63.24;99368.74;1720432;83;20992;-41
2021/07/15 02:58:26;;;;;;;34.63;17.77;;;;;;;25.07;62.96;99367.07;1720146;83;21028;-41
2021/07/15 03:00:56;;;;;;;25.30;15.05;;;;;;;25.08;62.81;99365.04;1688788;84;21138;-41
2021/07/15 03:03:49;;;;;;;16.10;12.98;;;;;;;25.08;62.71;99369.20;1690848;84;21544;-40
2021/07/15 03:06:21;;;;;;;20.95;13.00;;;;;;;25.08;62.60;99367.81;1706291;83;21020;-41
2021/07/15 03:08:58;;;;;;;26.17;14.78;;;;;;;25.08;62.81;99363.05;1719535;83;21045;-41
2021/07/15 03:11:40;;;;;;;18.52;12.80;;;;;;;25.13;62.62;99368.61;1707301;84;21109;-41
2021/07/15 03:14:06;;;;;;;18.02;12.78;;;;;;;25.17;62.39;99369.26;1706084;83;21509;-40
2021/07/15 03:16:35;;;;;;;14.23;12.73;;;;;;;25.19;62.48;99364.00;1707087;83;21512;-40
2021/07/15 03:19:04;;;;;;;15.85;12.70;;;;;;;25.19;62.29;99364.62;1707390;83;20946;-40
2021/07/15 03:21:32;;;;;;;15.43;13.50;;;;;;;25.21;62.34;99366.33;1707278;84;21106;-41
2021/07/15 03:25:16;;;;;;;16.05;13.03;;;;;;;25.29;62.43;99370.35;1814828;79;22737;-41
2021/07/15 03:27:47;;;;;;;15.85;12.78;;;;;;;25.26;62.56;99366.50;1787972;80;20993;-41
2021/07/15 03:30:15;;;;;;;16.37;12.37;;;;;;;25.32;62.33;99374.36;1757998;80;21127;-41
2021/07/15 03:32:45;;;;;;;15.40;13.20;;;;;;;25.37;62.22;99374.37;1788203;80;20976;-41
2021/07/15 03:35:14;;;;;;;16.40;13.53;;;;;;;25.37;62.15;99375.76;1787955;80;20976;-41
2021/07/15 03:37:43;;;;;;;16.27;13.28;;;;;;;25.37;62.22;99368.20;1758093;80;20992;-41
2021/07/15 03:40:15;;;;;;;15.50;14.00;;;;;;;25.37;62.22;99370.98;1787380;80;20909;-41
2021/07/15 03:42:42;;;;;;;16.35;13.25;;;;;;;25.38;62.43;99371.14;1788255;80;21083;-41
2021/07/15 03:45:09;;;;;;;14.55;12.93;;;;;;;25.38;62.29;99367.59;1787792;80;22010;-40
2021/07/15 03:47:37;;;;;;;20.20;13.28;;;;;;;25.43;62.16;99373.92;1787796;80;20909;-41
2021/07/15 03:50:06;;;;;;;17.10;13.38;;;;;;;25.47;62.02;99366.99;1777801;80;21082;-41
2021/07/15 03:52:32;;;;;;;17.50;14.07;;;;;;;25.49;61.93;99374.26;1757374;81;20994;-41
2021/07/15 03:54:59;;;;;;;17.15;13.15;;;;;;;25.49;61.92;99374.26;1756633;81;21541;-41
2021/07/15 03:57:28;;;;;;;17.15;12.88;;;;;;;25.49;62.01;99370.70;1694767;83;21007;-41
2021/07/15 03:59:55;;;;;;;16.40;14.18;;;;;;;25.50;62.01;99368.87;1692752;84;21024;-41
2021/07/15 04:02:24;;;;;;;16.45;13.32;;;;;;;25.49;62.27;99374.87;1723507;83;21593;-41
2021/07/15 04:04:58;;;;;;;17.90;13.53;;;;;;;25.47;62.53;99374.55;1692951;84;21028;-41
2021/07/15 04:07:28;;;;;;;19.23;14.38;;;;;;;25.48;62.67;99376.09;1698701;83;21812;-41
2021/07/15 04:09:55;;;;;;;19.50;14.87;;;;;;;25.51;62.91;99372.42;1721711;83;20992;-41
2021/07/15 04:12:23;;;;;;;16.62;14.28;;;;;;;25.55;63.03;99375.06;1753295;81;20995;-41
2021/07/15 04:15:08;;;;;;;19.25;15.93;;;;;;;25.61;63.01;99374.63;1723264;83;20984;-41
2021/07/15 04:17:42;;;;;;;17.98;14.63;;;;;;;25.64;63.02;99371.69;1723364;83;21027;-42
2021/07/15 04:20:11;;;;;;;16.23;14.30;;;;;;;25.69;62.98;99376.63;1723466;81;21157;-41
2021/07/15 04:22:39;;;;;;;17.37;14.10;;;;;;;25.75;62.66;99369.85;1723746;83;21043;-41
2021/07/15 04:25:08;;;;;;;15.93;14.23;;;;;;;25.79;62.76;99362.13;1715728;83;20969;-41
2021/07/15 04:27:34;;;;;;;16.05;14.43;;;;;;;25.84;62.83;99363.68;1705519;82;20953;-41
2021/07/15 04:30:07;;;;;;;18.75;15.23;;;;;;;25.92;62.67;99361.35;1705251;82;21047;-41
2021/07/15 04:32:59;;;;;;;20.32;15.32;;;;;;;25.97;62.51;99353.80;1732358;82;21391;-41
2021/07/15 04:35:26;;;;;;;20.75;15.05;;;;;;;26.03;62.32;99356.11;1731596;82;21542;-41
2021/07/15 04:37:53;;;;;;;17.23;14.65;;;;;;;26.04;62.28;99357.66;1731793;82;20992;-41
2021/07/15 04:40:22;;;;;;;15.43;13.95;;;;;;;26.09;62.12;99356.27;1731490;82;21040;-41
2021/07/15 04:43:00;;;;;;;16.70;14.18;;;;;;;26.16;61.93;99351.15;1751018;82;21039;-41
2021/07/15 04:45:27;;;;;;;22.00;14.05;;;;;;;26.22;61.79;99356.27;1736688;82;21862;-41
2021/07/15 04:47:55;;;;;;;20.12;14.93;;;;;;;26.28;61.64;99353.64;1740838;82;21009;-41
2021/07/15 04:50:26;;;;;;;16.50;14.43;;;;;;;26.34;61.50;99350.36;1750890;82;20957;-41
2021/07/15 04:52:58;;;;;;;15.13;13.72;;;;;;;26.38;61.55;99353.13;1751198;82;21072;-42
2021/07/15 04:55:24;;;;;;;17.75;13.00;;;;;;;26.45;61.66;99355.44;1750932;82;21060;-41
2021/07/15 04:57:54;;;;;;;17.05;13.08;;;;;;;26.50;60.54;99352.03;1750872;82;21126;-41
2021/07/15 05:00:21;;;;;;;17.87;13.38;;;;;;;26.53;60.81;99349.72;1750995;82;21483;-41
2021/07/15 05:02:56;;;;;;;18.17;12.68;;;;;;;26.61;60.90;99356.48;1751130;82;21056;-41
2021/07/15 05:05:24;;;;;;;17.00;13.20;;;;;;;26.68;61.16;99350.58;1750090;81;21080;-41
2021/07/15 05:07:50;;;;;;;17.92;13.05;;;;;;;26.78;60.82;99354.25;1739722;82;21116;-41
2021/07/15 05:10:17;;;;;;;16.62;13.18;;;;;;;26.86;60.17;99351.95;1715079;83;21114;-42
2021/07/15 05:12:45;;;;;;;16.95;12.40;;;;;;;26.88;59.99;99348.06;1686247;85;21546;-41
2021/07/15 05:15:12;;;;;;;16.25;11.90;;;;;;;26.93;59.83;99341.86;1697206;84;21021;-41
2021/07/15 05:17:40;;;;;;;12.53;10.72;;;;;;;26.99;58.96;99344.15;1697319;84;20981;-42
2021/07/15 05:20:09;;;;;;;12.40;10.93;;;;;;;27.04;57.98;99347.68;1697159;84;21555;-41
2021/07/15 05:22:37;;;;;;;12.05;10.60;;;;;;;27.08;57.70;99349.67;1697568;84;21104;-42
2021/07/15 05:25:06;;;;;;;14.10;10.03;;;;;;;27.13;57.29;99353.20;1691520;84;21097;-41
2021/07/15 05:27:35;;;;;;;15.28;10.00;;;;;;;27.17;56.25;99353.79;1689160;84;20990;-41
2021/07/15 05:30:05;;;;;;;13.62;10.10;;;;;;;27.19;56.42;99351.94;1717130;83;20997;-41
2021/07/15 05:32:33;;;;;;;11.55;9.95;;;;;;;27.21;56.36;99357.16;1693085;84;21049;-41
2021/07/15 05:35:00;;;;;;;11.20;9.93;;;;;;;27.22;56.46;99360.10;1665595;86;21157;-41
2021/07/15 05:37:27;;;;;;;11.88;9.95;;;;;;;27.28;56.64;99356.67;1697144;84;20965;-42
2021/07/15 05:39:54;;;;;;;13.88;10.35;;;;;;;27.34;56.77;99360.36;1696974;84;21064;-42
2021/07/15 05:42:20;;;;;;;12.25;10.00;;;;;;;27.39;55.95;99356.92;1697375;84;21059;-41
2021/07/15 05:44:48;;;;;;;20.62;11.15;;;;;;;27.42;55.53;99354.57;1696857;84;21546;-41
2021/07/15 05:47:15;;;;;;;15.93;10.45;;;;;;;27.46;55.56;99356.55;1708562;83;21884;-42
2021/07/15 05:49:41;;;;;;;12.15;10.05;;;;;;;27.48;55.92;99355.47;1725926;83;21563;-41
2021/07/15 05:52:11;;;;;;;15.95;9.80;;;;;;;27.51;55.53;99353.92;1710658;83;21048;-41
2021/07/15 05:54:39;;;;;;;11.30;10.10;;;;;;;27.57;55.81;99347.08;1696691;84;21056;-42
2021/07/15 05:57:06;;;;;;;12.05;10.00;;;;;;;27.65;55.52;99351.80;1696832;84;21118;-42
2021/07/15 05:59:37;;;;;;;14.10;10.03;;;;;;;27.72;55.38;99345.11;1696812;84;21138;-41
2021/07/15 06:02:04;;;;;;;12.13;9.35;;;;;;;27.80;55.42;99350.45;1696768;84;21032;-41
2021/07/15 06:04:30;;;;;;;11.40;9.55;;;;;;;27.87;55.01;99345.91;1696726;84;20969;-41
2021/07/15 06:06:57;;;;;;;12.25;9.33;;;;;;;27.93;53.80;99343.23;1696594;84;21036;-41
2021/07/15 06:09:23;;;;;;;10.43;9.43;;;;;;;27.96;54.09;99345.06;1669368;84;21080;-41
2021/07/15 06:11:51;;;;;;;10.85;9.30;;;;;;;28.01;54.00;99343.00;1668643;86;21862;-42
2021/07/15 06:14:17;;;;;;;10.38;9.28;;;;;;;28.06;53.84;99339.55;1668518;86;21586;-41
2021/07/15 06:16:46;;;;;;;11.65;10.25;;;;;;;28.10;53.98;99339.50;1668590;86;21048;-41
2021/07/15 06:19:12;;;;;;;15.55;10.58;;;;;;;28.17;53.77;99339.02;1668674;86;21065;-41
2021/07/15 06:21:39;;;;;;;10.40;9.38;;;;;;;28.22;53.80;99338.34;1668817;86;21041;-41
2021/07/15 06:24:06;;;;;;;13.48;9.83;;;;;;;28.29;54.33;99335.16;1676576;83;21854;-41
2021/07/15 06:26:32;;;;;;;12.40;9.90;;;;;;;28.39;54.70;99340.17;1726346;83;21016;-41
2021/07/15 06:29:01;;;;;;;12.13;9.68;;;;;;;28.50;54.45;99339.59;1726214;83;20955;-41
2021/07/15 06:31:27;;;;;;;11.48;9.43;;;;;;;28.60;53.98;99338.23;1726345;83;21465;-41
2021/07/15 06:33:54;;;;;;;10.70;9.60;;;;;;;28.70;53.28;99331.30;1726478;83;20954;-41
2021/07/15 06:36:21;;;;;;;10.30;8.98;;;;;;;28.80;53.00;99331.98;1726393;83;21136;-41
2021/07/15 06:38:48;;;;;;;14.60;9.35;;;;;;;28.87;52.60;99329.55;1726234;83;21496;-42
2021/07/15 06:41:16;;;;;;;13.20;8.45;;;;;;;28.94;52.62;99324.97;1726800;81;21042;-42
2021/07/15 06:43:43;;;;;;;10.82;8.53;;;;;;;29.05;52.47;99326.39;1726629;83;21088;-42
2021/07/15 06:46:11;;;;;;;10.43;8.45;;;;;;;29.16;52.52;99320.94;1726260;83;21044;-42
2021/07/15 06:48:38;;;;;;;9.38;7.95;;;;;;;29.25;51.11;99318.78;1729521;81;21849;-41
2021/07/15 06:51:05;;;;;;;8.70;7.80;;;;;;;29.34;51.43;99314.48;1726358;83;21016;-41
2021/07/15 06:53:33;;;;;;;8.93;7.80;;;;;;;29.46;51.99;99315.41;1726251;83;21021;-42
2021/07/15 06:55:59;;;;;;;11.10;7.33;;;;;;;29.57;51.33;99325.33;1726519;83;21015;-42
2021/07/15 06:58:28;;;;;;;8.50;7.30;;;;;;;29.67;50.89;99324.55;1726449;83;20945;-41
2021/07/15 07:00:56;;;;;;;8.78;7.20;;;;;;;29.77;50.93;99321.09;1726355;83;21391;-42
2021/07/15 07:03:24;;;;;;;7.97;7.20;;;;;;;29.87;49.89;99319.56;1726746;83;21478;-42
2021/07/15 07:05:52;;;;;;;9.38;6.83;;;;;;;29.95;49.54;99317.27;1726443;83;20972;-42
2021/07/15 07:08:18;;;;;;;8.30;7.50;;;;;;;30.02;49.03;99320.23;1726462;81;21080;-42
2021/07/15 07:10:45;;;;;;;13.65;7.78;;;;;;;30.09;49.50;99313.59;1726412;83;21052;-42
2021/07/15 07:13:12;;;;;;;9.88;7.05;;;;;;;30.18;48.96;99323.20;1726310;81;21899;-42
2021/07/15 07:15:40;;;;;;;8.08;6.87;;;;;;;30.27;48.74;99326.46;1726113;83;21556;-42
2021/07/15 07:18:07;;;;;;;9.33;7.00;;;;;;;30.37;48.18;99322.86;1726292;83;20916;-42
2021/07/15 07:20:34;;;;;;;8.70;6.70;;;;;;;30.46;48.43;99324.11;1726328;83;20928;-42
2021/07/15 07:23:03;;;;;;;7.60;6.90;;;;;;;30.54;47.58;99328.78;1726242;83;21497;-42
2021/07/15 07:25:31;;;;;;;8.90;6.35;;;;;;;30.59;47.27;99333.66;1705958;83;21493;-42
2021/07/15 07:27:57;;;;;;;7.95;6.60;;;;;;;30.63;47.61;99334.19;1690590;84;21006;-42
2021/07/15 07:30:24;;;;;;;12.95;6.90;;;;;;;30.71;46.31;99326.72;1690298;84;21043;-42
2021/07/15 07:32:52;;;;;;;12.07;6.25;;;;;;;30.77;45.51;99328.30;1690384;84;21036;-42
2021/07/15 07:35:21;;;;;;;10.78;6.03;;;;;;;30.81;44.70;99328.06;1690349;84;21076;-41
2021/07/15 07:37:47;;;;;;;6.78;6.08;;;;;;;30.82;45.31;99334.58;1700118;82;20998;-42
2021/07/15 07:40:15;;;;;;;8.48;5.80;;;;;;;30.89;45.57;99330.53;1705148;84;21501;-42
2021/07/15 07:42:42;;;;;;;8.68;5.85;;;;;;;30.97;43.88;99330.22;1705549;84;20955;-42
2021/07/15 07:45:10;;;;;;;7.12;5.55;;;;;;;31.06;44.46;99324.45;1705033;84;21038;-42
2021/07/15 07:47:37;;;;;;;7.58;6.25;;;;;;;31.13;43.72;99329.56;1697089;82;21666;-42
2021/07/15 07:50:07;;;;;;;7.05;5.65;;;;;;;31.18;42.79;99328.83;1690537;84;21132;-42
2021/07/15 07:52:34;;;;;;;9.93;5.90;;;;;;;31.22;42.03;99338.42;1690430;84;21094;-42
2021/07/15 07:55:02;;;;;;;7.83;6.30;;;;;;;31.24;42.02;99335.23;1690200;84;21512;-42
2021/07/15 07:57:33;;;;;;;7.83;5.90;;;;;;;31.30;43.68;99329.67;1690467;84;21218;-42
2021/07/15 07:59:57;;;;;;;9.20;6.40;;;;;;;31.39;42.92;99337.86;1690229;84;21604;-42
2021/07/15 08:02:24;;;;;;;8.93;6.60;;;;;;;31.48;44.09;99337.01;1700915;82;22082;-42
2021/07/15 08:04:51;;;;;;;8.55;6.25;;;;;;;31.59;43.48;99334.15;1705142;84;20966;-42
2021/07/15 08:07:18;;;;;;;9.40;6.03;;;;;;;31.68;42.54;99338.90;1705450;84;21036;-42
2021/07/15 08:09:46;;;;;;;7.15;5.97;;;;;;;31.79;42.62;99338.95;1705190;83;21133;-42
2021/07/15 08:12:15;;;;;;;8.50;5.87;;;;;;;31.89;43.33;99339.48;1730518;82;21062;-42
2021/07/15 08:14:44;;;;;;;8.20;6.15;;;;;;;31.97;42.81;99341.91;1733430;82;21155;-42
2021/07/15 08:17:11;;;;;;;9.58;6.12;;;;;;;32.06;41.72;99345.11;1729600;82;21056;-42
2021/07/15 08:19:39;;;;;;;8.98;6.50;;;;;;;32.11;41.64;99342.36;1705196;84;20962;-42
2021/07/15 08:22:07;;;;;;;11.40;6.28;;;;;;;32.18;41.65;99340.47;1705690;82;21531;-42
2021/07/15 08:24:33;;;;;;;9.23;6.20;;;;;;;32.22;41.35;99333.96;1705805;83;21539;-42
2021/07/15 08:27:01;;;;;;;10.23;6.33;;;;;;;32.24;40.94;99331.40;1718861;83;21132;-42
2021/07/15 08:29:28;;;;;;;8.50;6.33;;;;;;;32.27;40.74;99333.20;1719014;83;21488;-42
2021/07/15 08:31:54;;;;;;;8.20;6.50;;;;;;;32.33;41.32;99330.41;1719086;83;21320;-42
2021/07/15 08:34:21;;;;;;;7.55;6.05;;;;;;;32.42;41.40;99330.79;1718984;83;21084;-42
2021/07/15 08:36:49;;;;;;;9.08;6.58;;;;;;;32.51;40.19;99330.53;1718826;82;21073;-42
2021/07/15 08:39:16;;;;;;;9.98;6.87;;;;;;;32.55;39.91;99324.02;1718801;83;21104;-42
2021/07/15 08:41:44;;;;;;;7.67;6.20;;;;;;;32.58;40.78;99330.03;1718730;83;21595;-42
2021/07/15 08:44:13;;;;;;;7.47;6.00;;;;;;;32.66;40.39;99326.86;1718923;83;20985;-42
2021/07/15 08:46:47;;;;;;;9.03;6.60;;;;;;;32.72;40.29;99319.97;1742849;82;21092;-42
2021/07/15 08:49:19;;;;;;;8.80;6.55;;;;;;;32.77;40.97;99312.81;1722621;82;21017;-42
2021/07/15 08:51:47;;;;;;;7.10;6.30;;;;;;;32.85;40.66;99322.24;1729768;82;21737;-42
2021/07/15 08:54:16;;;;;;;11.93;6.37;;;;;;;32.92;39.49;99319.56;1718938;83;21111;-42
2021/07/15 08:56:47;;;;;;;8.50;5.97;;;;;;;32.97;39.23;99315.31;1719168;83;21076;-42
2021/07/15 08:59:16;;;;;;;9.33;6.00;;;;;;;32.99;38.45;99324.64;1718853;83;21013;-42
2021/07/15 09:01:45;;;;;;;9.88;6.92;;;;;;;33.03;38.58;99318.88;1719022;83;21096;-42
2021/07/15 09:04:12;;;;;;;7.85;6.00;;;;;;;33.12;39.87;99311.57;1719155;83;21794;-42
2021/07/15 09:06:41;;;;;;;10.13;6.58;;;;;;;33.19;39.80;99313.89;1718870;83;20902;-42
2021/07/15 09:09:10;;;;;;;7.50;6.20;;;;;;;33.27;38.99;99313.34;1718663;82;21084;-42
2021/07/15 09:11:39;;;;;;;10.13;7.10;;;;;;;33.28;37.87;99312.06;1719066;83;21033;-42
2021/07/15 09:14:17;;;;;;;8.90;6.13;;;;;;;33.27;37.50;99311.94;1719208;83;21057;-42
2021/07/15 09:16:50;;;;;;;7.62;6.12;;;;;;;33.29;38.17;99311.56;1718864;83;21121;-42
2021/07/15 09:19:22;;;;;;;12.78;6.80;;;;;;;33.38;38.07;99306.28;1718663;83;21527;-42
2021/07/15 09:21:48;;;;;;;10.30;6.45;;;;;;;33.42;37.70;99301.16;1718932;83;21690;-42
2021/07/15 09:24:32;;;;;;;7.00;6.10;;;;;;;33.48;38.03;99301.90;1718975;83;20996;-42
2021/07/15 09:27:16;;;;;;;12.45;7.10;;;;;;;33.57;37.68;99298.78;1706656;83;21560;-42
2021/07/15 09:29:46;;;;;;;9.30;6.60;;;;;;;33.61;37.46;99302.08;1705268;82;20927;-42
2021/07/15 09:32:16;;;;;;;10.75;6.42;;;;;;;33.61;37.61;99295.05;1705450;83;26677;-42
2021/07/15 09:34:44;;;;;;;8.60;6.28;;;;;;;33.66;36.79;99297.71;1705413;84;20994;-42
2021/07/15 09:37:15;;;;;;;9.10;6.62;;;;;;;33.67;37.25;99301.45;1705133;84;21036;-42
2021/07/15 09:39:48;;;;;;;11.78;6.70;;;;;;;33.71;37.21;99292.09;1705529;84;21108;-42
2021/07/15 09:42:20;;;;;;;8.65;6.72;;;;;;;33.80;36.86;99295.23;1705175;83;21137;-42
2021/07/15 09:44:50;;;;;;;11.48;6.53;;;;;;;33.80;35.71;99288.97;1705253;84;21024;-42
2021/07/15 09:47:39;;;;;;;8.18;6.55;;;;;;;33.80;34.97;99296.64;1717502;82;21029;-42
2021/07/15 09:50:25;;;;;;;9.33;6.40;;;;;;;33.78;34.81;99284.52;1734572;82;20926;-42
2021/07/15 09:52:56;;;;;;;10.20;6.72;;;;;;;33.82;35.73;99291.27;1734718;82;21097;-42
2021/07/15 09:55:27;;;;;;;8.78;6.47;;;;;;;33.82;36.09;99296.25;1732201;82;21130;-42
2021/07/15 09:58:03;;;;;;;9.88;6.10;;;;;;;33.89;36.22;99294.28;1718117;82;20906;-42
2021/07/15 10:00:42;;;;;;;12.07;6.53;;;;;;;33.94;34.90;99290.66;1705513;84;21548;-42
2021/07/15 10:03:12;;;;;;;7.45;6.30;;;;;;;34.03;36.01;99298.78;1705189;84;21037;-42
2021/07/15 10:05:53;;;;;;;10.25;6.08;;;;;;;34.13;36.23;99292.19;1705272;84;20934;-42
2021/07/15 10:08:28;;;;;;;12.60;6.60;;;;;;;34.21;34.41;99291.80;1720752;82;21803;-42
2021/07/15 10:11:24;;;;;;;9.68;6.83;;;;;;;34.22;34.72;99282.71;1734540;82;20923;-42
2021/07/15 10:14:07;;;;;;;8.48;6.87;;;;;;;34.25;35.21;99285.88;1734819;82;20973;-42
2021/07/15 10:16:40;;;;;;;9.03;6.65;;;;;;;34.29;35.08;99284.94;1734812;82;21013;-42
2021/07/15 10:19:19;;;;;;;11.75;7.03;;;;;;;34.41;35.09;99280.12;1734834;82;21029;-42
2021/07/15 10:21:48;;;;;;;15.63;6.83;;;;;;;34.51;34.01;99284.00;1734965;82;21858;-42
2021/07/15 10:24:25;;;;;;;8.75;6.60;;;;;;;34.50;34.48;99276.84;1691501;82;21499;-42
2021/07/15 10:26:51;;;;;;;10.05;6.53;;;;;;;34.52;34.72;99274.27;1734012;81;21001;-42
2021/07/15 10:29:19;;;;;;;9.83;6.90;;;;;;;34.66;34.12;99276.69;1734667;82;20961;-42
2021/07/15 10:31:48;;;;;;;15.78;6.80;;;;;;;34.73;33.83;99281.75;1734735;82;21477;-42
2021/07/15 10:34:15;;;;;;;12.25;6.87;;;;;;;34.73;33.92;99275.36;1734573;82;21117;-42
2021/07/15 10:36:42;;;;;;;9.78;6.55;;;;;;;34.75;33.65;99277.78;1734580;82;21475;-42
2021/07/15 10:39:18;;;;;;;8.45;6.65;;;;;;;34.78;33.31;99276.71;1734262;82;21290;-42
2021/07/15 10:41:44;;;;;;;12.58;7.40;;;;;;;34.89;33.37;99272.38;1734050;81;21042;-42
2021/07/15 10:44:12;;;;;;;9.05;7.22;;;;;;;35.01;33.22;99275.05;1734663;81;21037;-42
2021/07/15 10:46:39;;;;;;;10.18;7.47;;;;;;;35.04;32.34;99266.97;1725739;82;21185;-42
2021/07/15 10:49:08;;;;;;;9.05;7.20;;;;;;;35.05;32.67;99264.27;1705217;84;21072;-42
2021/07/15 10:51:37;;;;;;;10.30;7.33;;;;;;;35.07;33.55;99263.84;1705592;84;20935;-42
2021/07/15 10:54:05;;;;;;;11.12;7.05;;;;;;;35.13;33.53;99259.55;1705268;83;21195;-42
2021/07/15 10:56:32;;;;;;;9.10;6.47;;;;;;;35.24;33.11;99258.05;1705479;84;21045;-42
2021/07/15 10:59:04;;;;;;;10.33;6.60;;;;;;;35.41;32.20;99255.77;1705454;82;21583;-42
2021/07/15 11:01:41;;;;;;;10.03;7.15;;;;;;;35.41;32.78;99262.81;1705283;84;21018;-42
2021/07/15 11:04:23;;;;;;;10.58;6.97;;;;;;;35.51;32.96;99262.55;1705259;83;21512;-42
2021/07/15 11:06:53;;;;;;;13.88;6.83;;;;;;;35.68;32.85;99256.05;1703887;83;21037;-42
2021/07/15 11:09:36;;;;;;;13.45;6.97;;;;;;;35.84;31.97;99252.87;1705160;84;21061;-42
2021/07/15 11:12:07;;;;;;;10.80;6.87;;;;;;;35.94;32.27;99243.36;1705330;84;21171;-42
2021/07/15 11:14:43;;;;;;;13.22;7.05;;;;;;;36.01;31.51;99242.74;1702842;84;21088;-43
2021/07/15 11:17:30;;;;;;;8.35;7.35;;;;;;;36.12;31.55;99243.95;1705227;84;22045;-42
2021/07/15 11:20:25;;;;;;;11.20;6.67;;;;;;;36.22;31.71;99243.69;1718451;82;21022;-42
2021/07/15 11:23:11;;;;;;;12.47;7.05;;;;;;;36.34;32.02;99240.80;1733123;82;21026;-42
2021/07/15 11:25:39;;;;;;;10.98;7.33;;;;;;;36.43;30.91;99236.14;1732182;82;21906;-43
2021/07/15 11:28:19;;;;;;;12.28;7.00;;;;;;;36.43;30.63;99243.20;1738819;82;20932;-42
2021/07/15 11:30:52;;;;;;;11.53;7.22;;;;;;;36.40;31.63;99238.64;1665545;85;20989;-42
2021/07/15 11:33:27;;;;;;;11.80;6.80;;;;;;;36.36;31.38;99236.77;1738463;82;21013;-43
2021/07/15 11:36:07;;;;;;;10.93;6.85;;;;;;;36.36;31.16;99240.27;1731165;82;21517;-43
2021/07/15 11:38:42;;;;;;;11.75;6.85;;;;;;;36.45;30.98;99234.20;1710777;83;21879;-42
2021/07/15 11:41:15;;;;;;;10.68;7.03;;;;;;;36.64;31.36;99237.73;1700960;83;20928;-43